createdAt,value
2022-10-29T00:01:41.689Z,1.00
2022-10-29T00:11:56.280Z,1.00
2022-10-29T00:17:01.813Z,1.00
2022-10-29T00:22:07.693Z,1.00
2022-10-29T00:27:12.666Z,1.00
2022-10-29T00:32:18.603Z,1.00
2022-10-29T00:37:24.707Z,1.00
2022-10-29T00:42:29.769Z,1.00
2022-10-29T00:47:38.297Z,1.00
2022-10-29T00:52:46.182Z,1.00
2022-10-29T00:57:54.557Z,1.00
2022-10-29T01:03:00.356Z,1.00
2022-10-29T01:08:06.862Z,1.00
2022-10-29T01:13:35.199Z,1.00
2022-10-29T01:18:43.856Z,1.00
2022-10-29T01:24:03.980Z,1.00
2022-10-29T01:29:27.059Z,1.00
2022-10-29T01:34:52.801Z,1.00
2022-10-29T01:40:13.779Z,1.00
2022-10-29T01:45:28.635Z,1.00
2022-10-29T01:50:34.939Z,1.00
2022-10-29T01:55:40.306Z,1.00
2022-10-29T02:00:57.776Z,1.00
2022-10-29T02:06:19.292Z,1.00
2022-10-29T02:11:30.072Z,1.00
2022-10-29T02:16:35.528Z,1.00
2022-10-29T02:21:40.475Z,1.00
2022-10-29T02:26:45.428Z,1.00
2022-10-29T02:31:50.272Z,1.00
2022-10-29T02:36:55.635Z,1.00
2022-10-29T02:42:02.325Z,1.00
2022-10-29T02:47:07.686Z,1.00
2022-10-29T02:52:13.044Z,1.00
2022-10-29T02:57:18.706Z,1.00
2022-10-29T03:02:25.120Z,1.00
2022-10-29T03:07:31.516Z,1.00
2022-10-29T03:12:36.524Z,1.00
2022-10-29T03:17:41.781Z,1.00
2022-10-29T03:22:47.139Z,1.00
2022-10-29T03:27:55.369Z,1.00
2022-10-29T03:33:00.827Z,1.00
2022-10-29T03:38:06.083Z,1.00
2022-10-29T03:43:11.955Z,1.00
2022-10-29T03:48:17.245Z,1.00
2022-10-29T03:53:22.184Z,1.00
2022-10-29T03:58:27.421Z,1.00
2022-10-29T04:03:34.976Z,1.00
2022-10-29T04:08:41.446Z,1.00
2022-10-29T04:13:46.461Z,1.00
2022-10-29T04:18:51.832Z,1.00
2022-10-29T04:29:03.845Z,1.00
2022-10-29T04:34:09.028Z,42.70
2022-10-29T04:39:18.292Z,18.30
2022-10-29T04:44:22.367Z,99.90
2022-10-29T04:49:28.128Z,99.90
2022-10-29T04:54:33.226Z,99.90
2022-10-29T04:59:38.073Z,99.90
2022-10-29T05:04:43.649Z,99.90
2022-10-29T05:09:48.893Z,99.90
2022-10-29T05:14:54.967Z,99.90
2022-10-29T05:19:59.903Z,99.90
2022-10-29T05:25:05.071Z,99.90
2022-10-29T05:30:10.230Z,99.90
2022-10-29T05:35:16.403Z,99.90
2022-10-29T05:40:23.707Z,99.90
2022-10-29T05:45:29.150Z,99.90
2022-10-29T05:50:34.721Z,99.90
2022-10-29T05:55:40.605Z,99.90
2022-10-29T06:00:47.052Z,99.90
2022-10-29T06:05:52.176Z,99.90
2022-10-29T06:11:00.165Z,99.90
2022-10-29T06:16:08.368Z,99.90
2022-10-29T06:21:13.926Z,99.90
2022-10-29T06:26:19.620Z,99.90
2022-10-29T06:31:25.407Z,99.90
2022-10-29T06:36:30.337Z,99.90
2022-10-29T06:41:35.694Z,99.90
2022-10-29T06:46:42.370Z,99.90
2022-10-29T06:51:48.459Z,99.90
2022-10-29T06:56:53.819Z,99.90
2022-10-29T07:02:00.295Z,99.90
2022-10-29T07:07:05.768Z,99.90
2022-10-29T07:12:13.274Z,99.90
2022-10-29T07:17:18.634Z,99.90
2022-10-29T07:22:23.789Z,99.90
2022-10-29T07:27:29.730Z,99.90
2022-10-29T07:32:35.528Z,99.90
2022-10-29T07:37:40.580Z,99.90
2022-10-29T07:42:45.530Z,99.90
2022-10-29T07:47:52.296Z,99.90
2022-10-29T07:52:58.940Z,99.90
2022-10-29T07:58:10.423Z,99.90
2022-10-29T08:03:16.561Z,99.90
2022-10-29T08:08:21.542Z,99.90
2022-10-29T08:13:27.310Z,99.90
2022-10-29T08:18:32.143Z,99.90
2022-10-29T08:23:37.897Z,99.90
2022-10-29T08:28:43.797Z,1.00
2022-10-29T08:33:49.976Z,1.00
2022-10-29T08:38:55.865Z,1.00
2022-10-29T08:44:14.392Z,1.00
2022-10-29T08:49:28.605Z,1.00
2022-10-29T08:54:36.818Z,1.00
2022-10-29T08:59:45.117Z,1.00
2022-10-29T09:04:49.980Z,1.00
2022-10-29T09:10:00.844Z,1.00
2022-10-29T09:15:30.804Z,1.00
2022-10-29T09:20:54.352Z,1.00
2022-10-29T09:26:05.384Z,1.00
2022-10-29T09:31:43.908Z,1.00
2022-10-29T09:36:50.096Z,99.90
2022-10-29T09:41:58.631Z,99.90
2022-10-29T09:47:10.122Z,99.90
2022-10-29T09:52:22.360Z,99.90
2022-10-29T09:57:30.759Z,99.90
2022-10-29T10:02:48.175Z,99.90
2022-10-29T10:08:13.892Z,99.90
2022-10-29T10:13:23.197Z,99.90
2022-10-29T10:18:30.402Z,99.90
2022-10-29T10:23:52.368Z,99.90
2022-10-29T10:29:24.307Z,99.90
2022-10-29T10:34:38.003Z,1.00
2022-10-29T10:39:45.888Z,99.90
2022-10-29T10:44:54.928Z,99.90
2022-10-29T10:50:21.782Z,99.90
2022-10-29T10:55:37.840Z,99.90
2022-10-29T11:00:44.515Z,99.90
2022-10-29T11:06:01.980Z,99.90
2022-10-29T11:11:28.140Z,99.90
2022-10-29T11:16:36.668Z,99.90
2022-10-29T11:22:03.195Z,99.90
2022-10-29T11:27:09.492Z,99.90
2022-10-29T11:32:27.137Z,99.90
2022-10-29T11:37:59.746Z,99.90
2022-10-29T11:43:09.241Z,99.90
2022-10-29T11:48:21.641Z,99.90
2022-10-29T11:53:43.765Z,99.90
2022-10-29T11:58:55.270Z,99.90
2022-10-29T12:04:21.319Z,99.90
2022-10-29T12:09:31.537Z,99.90
2022-10-29T12:14:49.028Z,99.90
2022-10-29T12:25:33.957Z,99.90
2022-10-29T12:30:45.760Z,99.90
2022-10-29T12:41:26.281Z,99.90
2022-10-29T12:46:46.276Z,99.90
2022-10-29T12:57:09.387Z,99.90
2022-10-29T13:02:24.391Z,99.90
2022-10-29T13:07:29.833Z,99.90
2022-10-29T13:12:52.585Z,99.90
2022-10-29T13:18:00.122Z,99.90
2022-10-29T13:23:28.511Z,99.90
2022-10-29T13:28:42.455Z,1.00
2022-10-29T13:33:50.656Z,89.80
2022-10-29T13:39:07.440Z,99.90
2022-10-29T13:44:15.552Z,85.40
2022-10-29T13:49:24.283Z,99.90
2022-10-29T13:54:42.342Z,99.90
2022-10-29T13:59:51.285Z,62.10
2022-10-29T14:04:59.790Z,18.30
2022-10-29T14:10:11.329Z,99.90
2022-10-29T14:15:16.629Z,99.90
2022-10-29T14:20:24.601Z,99.90
2022-10-29T14:25:36.412Z,99.90
2022-10-29T14:30:41.956Z,98.10
2022-10-29T14:35:47.757Z,74.10
2022-10-29T14:40:52.247Z,99.90
2022-10-29T14:46:00.714Z,99.90
2022-10-29T14:51:06.444Z,99.90
2022-10-29T14:56:16.408Z,99.90
2022-10-29T15:01:21.832Z,1.00
2022-10-29T15:06:30.342Z,1.00
2022-10-29T15:11:44.710Z,1.00
2022-10-29T15:16:49.843Z,1.00
2022-10-29T15:21:55.535Z,1.00
2022-10-29T15:27:03.022Z,1.00
2022-10-29T15:32:11.213Z,1.00
2022-10-29T15:37:33.832Z,1.00
2022-10-29T15:42:39.643Z,1.00
2022-10-29T15:47:54.401Z,1.00
2022-10-29T15:53:03.948Z,1.00
2022-10-29T15:58:15.409Z,1.00
2022-10-29T16:03:23.567Z,1.00
2022-10-29T16:08:44.308Z,1.00
2022-10-29T16:13:54.571Z,1.00
2022-10-29T16:18:59.099Z,1.00
2022-10-29T16:24:04.637Z,1.00
2022-10-29T16:29:09.603Z,1.00
2022-10-29T16:34:18.158Z,1.00
2022-10-29T16:39:21.581Z,1.00
2022-10-29T16:44:27.057Z,1.00
2022-10-29T16:49:32.587Z,1.00
2022-10-29T16:54:37.641Z,1.00
2022-10-29T16:59:42.588Z,1.00
2022-10-29T17:04:47.917Z,1.00
2022-10-29T17:09:54.683Z,1.00
2022-10-29T17:15:00.710Z,1.00
2022-10-29T17:20:08.551Z,1.00
2022-10-29T17:25:14.392Z,1.00
2022-10-29T17:30:18.920Z,63.20
2022-10-29T17:35:24.402Z,1.00
2022-10-29T17:40:29.359Z,1.00
2022-10-29T17:45:34.463Z,1.00
2022-10-29T17:50:39.639Z,1.00
2022-10-29T17:55:44.954Z,1.00
2022-10-29T18:00:50.356Z,1.00
2022-10-29T18:05:56.862Z,21.50
2022-10-29T18:11:14.401Z,61.00
2022-10-29T18:16:24.475Z,99.90
2022-10-29T18:21:30.968Z,42.50
2022-10-29T18:26:38.534Z,51.60
2022-10-29T18:31:45.470Z,1.00
2022-10-29T18:36:50.415Z,1.00
2022-10-29T18:41:55.877Z,1.00
2022-10-29T18:47:00.715Z,1.00
2022-10-29T18:52:06.136Z,21.00
2022-10-29T18:57:15.335Z,12.60
2022-10-29T19:02:18.376Z,1.00
2022-10-29T19:07:24.619Z,3.50
2022-10-29T19:12:30.031Z,1.00
2022-10-29T19:17:34.928Z,1.00
2022-10-29T19:22:39.878Z,1.00
2022-10-29T19:27:44.689Z,99.90
2022-10-29T19:32:50.194Z,72.70
2022-10-29T19:37:56.554Z,99.90
2022-10-29T19:43:02.928Z,56.00
2022-10-29T19:48:09.240Z,34.20
2022-10-29T19:53:14.490Z,99.90
2022-10-29T19:58:21.395Z,99.90
2022-10-29T20:03:26.641Z,99.90
2022-10-29T20:08:32.037Z,99.90
2022-10-29T20:13:38.086Z,99.90
2022-10-29T20:18:43.127Z,99.90
2022-10-29T20:23:47.975Z,99.90
2022-10-29T20:28:53.332Z,99.90
2022-10-29T20:34:01.098Z,99.90
2022-10-29T20:39:07.421Z,99.90
2022-10-29T20:44:13.403Z,99.90
2022-10-29T20:49:18.356Z,99.90
2022-10-29T20:54:23.408Z,99.90
2022-10-29T20:59:28.663Z,99.90
2022-10-29T21:04:35.614Z,99.90
2022-10-29T21:09:41.033Z,99.90
2022-10-29T21:14:46.386Z,99.90
2022-10-29T21:19:53.274Z,99.90
2022-10-29T21:24:58.428Z,99.70
2022-10-29T21:30:03.478Z,99.90
2022-10-29T21:35:09.635Z,99.90
2022-10-29T21:40:15.701Z,99.90
2022-10-29T21:45:22.220Z,99.90
2022-10-29T21:50:27.168Z,99.90
2022-10-29T21:55:33.041Z,99.90
2022-10-29T22:00:39.290Z,99.90
2022-10-29T22:05:44.371Z,65.60
2022-10-29T22:10:49.324Z,99.90
2022-10-29T22:15:54.273Z,82.70
2022-10-29T22:21:08.702Z,99.90
2022-10-29T22:26:17.107Z,67.40
2022-10-29T22:31:24.476Z,99.90
2022-10-29T22:36:31.376Z,99.90
2022-10-29T22:41:36.627Z,99.90
2022-10-29T22:46:41.935Z,99.90
2022-10-29T22:51:48.575Z,99.90
2022-10-29T22:56:53.402Z,99.90
2022-10-29T23:01:58.328Z,99.90
2022-10-29T23:07:03.274Z,99.90
2022-10-29T23:12:08.784Z,99.90
2022-10-29T23:17:20.700Z,99.90
2022-10-29T23:22:27.527Z,99.90
2022-10-29T23:27:32.456Z,99.90
2022-10-29T23:32:37.387Z,99.90
2022-10-29T23:37:42.954Z,93.60
2022-10-29T23:42:48.071Z,99.90
2022-10-29T23:47:55.329Z,99.90
2022-10-29T23:53:01.486Z,99.90
2022-10-29T23:58:08.019Z,99.90
